sensor_id;sensor_type;location;lat;lon;timestamp;pressure;altitude;pressure_sealevel;temperature;humidity
27712;BME280;2377;51.734;8.950;2023-12-20T00:02:07;97468.34;;;7.02;100.00
27712;BME280;2377;51.734;8.950;2023-12-20T00:04:34;97471.28;;;6.98;100.00
27712;BME280;2377;51.734;8.950;2023-12-20T00:07:01;97468.94;;;7.04;100.00
27712;BME280;2377;51.734;8.950;2023-12-20T00:09:28;97462.88;;;7.05;100.00
27712;BME280;2377;51.734;8.950;2023-12-20T00:11:55;97462.69;;;6.99;100.00
27712;BME280;2377;51.734;8.950;2023-12-20T00:14:23;97467.00;;;6.99;100.00
27712;BME280;2377;51.734;8.950;2023-12-20T00:16:50;97455.66;;;6.88;100.00
27712;BME280;2377;51.734;8.950;2023-12-20T00:19:18;97471.47;;;6.90;100.00
27712;BME280;2377;51.734;8.950;2023-12-20T00:21:47;97462.88;;;6.91;100.00
27712;BME280;2377;51.734;8.950;2023-12-20T00:24:14;97460.16;;;6.93;100.00
27712;BME280;2377;51.734;8.950;2023-12-20T00:26:42;97456.59;;;7.01;100.00
27712;BME280;2377;51.734;8.950;2023-12-20T00:29:09;97466.22;;;6.98;100.00
27712;BME280;2377;51.734;8.950;2023-12-20T00:31:36;97467.00;;;6.99;100.00
27712;BME280;2377;51.734;8.950;2023-12-20T00:34:03;97465.63;;;6.96;100.00
27712;BME280;2377;51.734;8.950;2023-12-20T00:36:31;97477.16;;;7.06;100.00
27712;BME280;2377;51.734;8.950;2023-12-20T00:38:59;97474.03;;;7.04;100.00
27712;BME280;2377;51.734;8.950;2023-12-20T00:41:26;97476.94;;;7.01;100.00
27712;BME280;2377;51.734;8.950;2023-12-20T00:43:53;97470.50;;;7.05;100.00
27712;BME280;2377;51.734;8.950;2023-12-20T00:46:20;97470.13;;;7.01;100.00
27712;BME280;2377;51.734;8.950;2023-12-20T00:48:47;97466.81;;;6.94;100.00
27712;BME280;2377;51.734;8.950;2023-12-20T00:51:14;97458.38;;;6.93;100.00
27712;BME280;2377;51.734;8.950;2023-12-20T00:53:42;97470.91;;;6.82;100.00
27712;BME280;2377;51.734;8.950;2023-12-20T00:56:10;97474.22;;;6.75;100.00
27712;BME280;2377;51.734;8.950;2023-12-20T00:58:37;97477.56;;;6.76;100.00
27712;BME280;2377;51.734;8.950;2023-12-20T01:01:04;97472.47;;;6.69;100.00
27712;BME280;2377;51.734;8.950;2023-12-20T01:03:31;97473.47;;;6.75;100.00
27712;BME280;2377;51.734;8.950;2023-12-20T01:05:57;97477.53;;;6.69;100.00
27712;BME280;2377;51.734;8.950;2023-12-20T01:08:24;97470.09;;;6.68;100.00
27712;BME280;2377;51.734;8.950;2023-12-20T01:10:53;97478.72;;;6.73;100.00
27712;BME280;2377;51.734;8.950;2023-12-20T01:13:20;97477.72;;;6.74;100.00
27712;BME280;2377;51.734;8.950;2023-12-20T01:15:47;97482.81;;;6.74;100.00
27712;BME280;2377;51.734;8.950;2023-12-20T01:18:14;97484.78;;;6.66;100.00
27712;BME280;2377;51.734;8.950;2023-12-20T01:20:41;97485.94;;;6.70;100.00
27712;BME280;2377;51.734;8.950;2023-12-20T01:23:08;97486.53;;;6.65;100.00
27712;BME280;2377;51.734;8.950;2023-12-20T01:25:35;97479.50;;;6.61;100.00
27712;BME280;2377;51.734;8.950;2023-12-20T01:28:04;97489.44;;;6.55;100.00
27712;BME280;2377;51.734;8.950;2023-12-20T01:30:31;97480.88;;;6.56;100.00
27712;BME280;2377;51.734;8.950;2023-12-20T01:33:00;97486.13;;;6.48;100.00
27712;BME280;2377;51.734;8.950;2023-12-20T01:35:27;97488.28;;;6.51;100.00
27712;BME280;2377;51.734;8.950;2023-12-20T01:37:54;97484.38;;;6.55;100.00
27712;BME280;2377;51.734;8.950;2023-12-20T01:40:22;97487.47;;;6.44;100.00
27712;BME280;2377;51.734;8.950;2023-12-20T01:42:58;97488.06;;;6.40;100.00
27712;BME280;2377;51.734;8.950;2023-12-20T01:45:27;97479.47;;;6.41;100.00
27712;BME280;2377;51.734;8.950;2023-12-20T01:47:57;97488.06;;;6.40;100.00
27712;BME280;2377;51.734;8.950;2023-12-20T01:50:25;97495.50;;;6.41;100.00
27712;BME280;2377;51.734;8.950;2023-12-20T01:52:55;97502.16;;;6.42;100.00
27712;BME280;2377;51.734;8.950;2023-12-20T01:55:24;97506.22;;;6.37;100.00
27712;BME280;2377;51.734;8.950;2023-12-20T01:57:52;97502.91;;;6.36;100.00
27712;BME280;2377;51.734;8.950;2023-12-20T02:00:21;97509.53;;;6.24;100.00
27712;BME280;2377;51.734;8.950;2023-12-20T02:02:52;97506.78;;;6.32;100.00
27712;BME280;2377;51.734;8.950;2023-12-20T02:05:21;97509.94;;;6.34;100.00
27712;BME280;2377;51.734;8.950;2023-12-20T02:07:49;97515.00;;;6.34;100.00
27712;BME280;2377;51.734;8.950;2023-12-20T02:10:16;97501.69;;;6.25;100.00
27712;BME280;2377;51.734;8.950;2023-12-20T02:12:44;97504.47;;;6.37;100.00
27712;BME280;2377;51.734;8.950;2023-12-20T02:15:11;97517.34;;;6.29;100.00
27712;BME280;2377;51.734;8.950;2023-12-20T02:17:39;97521.63;;;6.28;100.00
27712;BME280;2377;51.734;8.950;2023-12-20T02:20:08;97506.00;;;6.31;100.00
27712;BME280;2377;51.734;8.950;2023-12-20T02:22:40;97505.59;;;6.28;100.00
27712;BME280;2377;51.734;8.950;2023-12-20T02:25:08;97502.31;;;6.34;100.00
27712;BME280;2377;51.734;8.950;2023-12-20T02:27:35;97489.59;;;6.27;100.00
27712;BME280;2377;51.734;8.950;2023-12-20T02:30:03;97493.53;;;6.23;100.00
27712;BME280;2377;51.734;8.950;2023-12-20T02:32:30;97491.94;;;6.22;100.00
27712;BME280;2377;51.734;8.950;2023-12-20T02:34:57;97482.19;;;6.26;100.00
27712;BME280;2377;51.734;8.950;2023-12-20T02:37:24;97477.13;;;6.26;100.00
27712;BME280;2377;51.734;8.950;2023-12-20T02:39:53;97473.56;;;6.13;100.00
27712;BME280;2377;51.734;8.950;2023-12-20T02:42:20;97482.56;;;6.09;100.00
27712;BME280;2377;51.734;8.950;2023-12-20T02:44:47;97477.88;;;6.20;100.00
27712;BME280;2377;51.734;8.950;2023-12-20T02:47:14;97477.09;;;6.19;100.00
27712;BME280;2377;51.734;8.950;2023-12-20T02:49:41;97487.25;;;6.19;100.00
27712;BME280;2377;51.734;8.950;2023-12-20T02:52:08;97485.88;;;6.10;100.00
27712;BME280;2377;51.734;8.950;2023-12-20T02:54:36;97491.72;;;6.10;100.00
27712;BME280;2377;51.734;8.950;2023-12-20T02:57:04;97487.03;;;6.07;100.00
27712;BME280;2377;51.734;8.950;2023-12-20T02:59:31;97486.81;;;6.09;100.00
27712;BME280;2377;51.734;8.950;2023-12-20T03:02:01;97489.75;;;6.06;100.00
27712;BME280;2377;51.734;8.950;2023-12-20T03:04:28;97485.66;;;6.05;100.00
27712;BME280;2377;51.734;8.950;2023-12-20T03:06:55;97490.91;;;6.03;100.00
27712;BME280;2377;51.734;8.950;2023-12-20T03:09:22;97474.34;;;6.07;100.00
27712;BME280;2377;51.734;8.950;2023-12-20T03:11:49;97478.22;;;6.03;100.00
27712;BME280;2377;51.734;8.950;2023-12-20T03:14:18;97482.13;;;6.06;100.00
27712;BME280;2377;51.734;8.950;2023-12-20T03:16:47;97486.44;;;6.05;100.00
27712;BME280;2377;51.734;8.950;2023-12-20T03:19:16;97478.66;;;6.07;100.00
27712;BME280;2377;51.734;8.950;2023-12-20T03:21:43;97468.44;;;5.93;100.00
27712;BME280;2377;51.734;8.950;2023-12-20T03:24:10;97475.88;;;6.02;100.00
27712;BME280;2377;51.734;8.950;2023-12-20T03:26:37;97465.28;;;5.85;100.00
27712;BME280;2377;51.734;8.950;2023-12-20T03:29:04;97467.69;;;6.00;100.00
27712;BME280;2377;51.734;8.950;2023-12-20T03:31:33;97478.22;;;6.03;100.00
27712;BME280;2377;51.734;8.950;2023-12-20T03:34:03;97470.38;;;5.91;100.00
27712;BME280;2377;51.734;8.950;2023-12-20T03:36:30;97462.94;;;5.90;100.00
27712;BME280;2377;51.734;8.950;2023-12-20T03:38:57;97455.16;;;5.91;100.00
27712;BME280;2377;51.734;8.950;2023-12-20T03:41:25;97459.44;;;5.91;100.00
27712;BME280;2377;51.734;8.950;2023-12-20T03:43:52;97463.53;;;5.92;100.00
27712;BME280;2377;51.734;8.950;2023-12-20T03:46:19;97467.41;;;5.81;100.00
27712;BME280;2377;51.734;8.950;2023-12-20T03:48:47;97459.84;;;5.88;100.00
27712;BME280;2377;51.734;8.950;2023-12-20T03:51:14;97464.50;;;5.84;100.00
27712;BME280;2377;51.734;8.950;2023-12-20T03:53:41;97463.34;;;5.93;100.00
27712;BME280;2377;51.734;8.950;2023-12-20T03:56:08;97470.94;;;5.87;100.00
27712;BME280;2377;51.734;8.950;2023-12-20T03:58:35;97462.94;;;5.90;100.00
27712;BME280;2377;51.734;8.950;2023-12-20T04:01:03;97458.59;;;5.70;100.00
27712;BME280;2377;51.734;8.950;2023-12-20T04:03:30;97459.41;;;5.78;100.00
27712;BME280;2377;51.734;8.950;2023-12-20T04:05:58;97446.31;;;5.74;100.00
27712;BME280;2377;51.734;8.950;2023-12-20T04:08:25;97440.69;;;5.79;100.00
27712;BME280;2377;51.734;8.950;2023-12-20T04:10:52;97455.47;;;5.75;100.00
27712;BME280;2377;51.734;8.950;2023-12-20T04:13:19;97460.53;;;5.68;100.00
27712;BME280;2377;51.734;8.950;2023-12-20T04:15:46;97462.09;;;5.69;100.00
27712;BME280;2377;51.734;8.950;2023-12-20T04:18:16;97463.66;;;5.70;100.00
27712;BME280;2377;51.734;8.950;2023-12-20T04:20:43;97458.56;;;5.64;100.00
27712;BME280;2377;51.734;8.950;2023-12-20T04:23:11;97460.16;;;5.71;100.00
27712;BME280;2377;51.734;8.950;2023-12-20T04:25:38;97458.75;;;5.62;100.00
27712;BME280;2377;51.734;8.950;2023-12-20T04:28:06;97458.00;;;5.68;100.00
27712;BME280;2377;51.734;8.950;2023-12-20T04:30:33;97457.03;;;5.69;100.00
27712;BME280;2377;51.734;8.950;2023-12-20T04:33:00;97461.31;;;5.69;100.00
27712;BME280;2377;51.734;8.950;2023-12-20T04:35:28;97453.31;;;5.65;100.00
27712;BME280;2377;51.734;8.950;2023-12-20T04:37:55;97446.31;;;5.67;100.00
27712;BME280;2377;51.734;8.950;2023-12-20T04:40:23;97447.44;;;5.58;100.00
27712;BME280;2377;51.734;8.950;2023-12-20T04:42:50;97450.78;;;5.65;100.00
27712;BME280;2377;51.734;8.950;2023-12-20T04:45:17;97446.84;;;5.56;100.00
27712;BME280;2377;51.734;8.950;2023-12-20T04:47:45;97458.75;;;5.62;100.00
27712;BME280;2377;51.734;8.950;2023-12-20T04:50:13;97461.88;;;5.64;100.00
27712;BME280;2377;51.734;8.950;2023-12-20T04:52:40;97452.50;;;5.58;100.00
27712;BME280;2377;51.734;8.950;2023-12-20T04:55:08;97450.00;;;5.65;100.00
27712;BME280;2377;51.734;8.950;2023-12-20T04:57:36;97445.09;;;5.63;100.00
27712;BME280;2377;51.734;8.950;2023-12-20T05:00:05;97446.06;;;5.56;100.00
27712;BME280;2377;51.734;8.950;2023-12-20T05:02:34;97446.09;;;5.62;100.00
27712;BME280;2377;51.734;8.950;2023-12-20T05:05:02;97449.94;;;5.51;100.00
27712;BME280;2377;51.734;8.950;2023-12-20T05:07:29;97439.84;;;5.65;100.00
27712;BME280;2377;51.734;8.950;2023-12-20T05:09:56;97439.06;;;5.64;100.00
27712;BME280;2377;51.734;8.950;2023-12-20T05:12:23;97447.22;;;5.53;100.00
27712;BME280;2377;51.734;8.950;2023-12-20T05:14:52;97436.63;;;5.43;100.00
27712;BME280;2377;51.734;8.950;2023-12-20T05:17:19;97448.19;;;5.52;100.00
27712;BME280;2377;51.734;8.950;2023-12-20T05:19:46;97455.19;;;5.50;100.00
27712;BME280;2377;51.734;8.950;2023-12-20T05:22:14;97452.44;;;5.45;100.00
27712;BME280;2377;51.734;8.950;2023-12-20T05:24:41;97451.88;;;5.49;100.00
27712;BME280;2377;51.734;8.950;2023-12-20T05:27:08;97462.59;;;5.51;100.00
27712;BME280;2377;51.734;8.950;2023-12-20T05:29:35;97452.25;;;5.46;100.00
27712;BME280;2377;51.734;8.950;2023-12-20T05:32:04;97462.22;;;5.55;100.00
27712;BME280;2377;51.734;8.950;2023-12-20T05:34:31;97467.06;;;5.49;100.00
27712;BME280;2377;51.734;8.950;2023-12-20T05:36:58;97465.91;;;5.52;100.00
27712;BME280;2377;51.734;8.950;2023-12-20T05:39:27;97451.09;;;5.49;100.00
27712;BME280;2377;51.734;8.950;2023-12-20T05:41:54;97445.63;;;5.52;100.00
27712;BME280;2377;51.734;8.950;2023-12-20T05:44:21;97445.28;;;5.55;100.00
27712;BME280;2377;51.734;8.950;2023-12-20T05:46:48;97455.03;;;5.58;100.00
27712;BME280;2377;51.734;8.950;2023-12-20T05:49:17;97449.91;;;5.45;100.00
27712;BME280;2377;51.734;8.950;2023-12-20T05:51:44;97440.22;;;5.55;100.00
27712;BME280;2377;51.734;8.950;2023-12-20T05:54:11;97450.31;;;5.48;100.00
27712;BME280;2377;51.734;8.950;2023-12-20T05:56:39;97452.25;;;5.46;100.00
27712;BME280;2377;51.734;8.950;2023-12-20T05:59:06;97440.97;;;5.49;100.00
27712;BME280;2377;51.734;8.950;2023-12-20T06:01:33;97449.09;;;5.38;100.00
27712;BME280;2377;51.734;8.950;2023-12-20T06:04:00;97455.31;;;5.35;100.00
27712;BME280;2377;51.734;8.950;2023-12-20T06:06:30;97449.09;;;5.38;100.00
27712;BME280;2377;51.734;8.950;2023-12-20T06:08:57;97463.94;;;5.47;100.00
27712;BME280;2377;51.734;8.950;2023-12-20T06:11:25;97450.28;;;5.42;100.00
27712;BME280;2377;51.734;8.950;2023-12-20T06:13:53;97446.75;;;5.36;100.00
27712;BME280;2377;51.734;8.950;2023-12-20T06:16:20;97459.00;;;5.33;100.00
27712;BME280;2377;51.734;8.950;2023-12-20T06:18:47;97467.00;;;5.29;100.00
27712;BME280;2377;51.734;8.950;2023-12-20T06:21:14;97454.69;;;5.26;100.00
27712;BME280;2377;51.734;8.950;2023-12-20T06:23:42;97456.66;;;5.31;100.00
27712;BME280;2377;51.734;8.950;2023-12-20T06:26:09;97458.19;;;5.25;100.00
27712;BME280;2377;51.734;8.950;2023-12-20T06:28:36;97432.72;;;5.40;100.00
27712;BME280;2377;51.734;8.950;2023-12-20T06:31:03;97442.66;;;5.35;100.00
27712;BME280;2377;51.734;8.950;2023-12-20T06:33:31;97442.47;;;5.37;100.00
27712;BME280;2377;51.734;8.950;2023-12-20T06:35:58;97456.66;;;5.31;100.00
27712;BME280;2377;51.734;8.950;2023-12-20T06:38:25;97457.66;;;5.37;100.00
27712;BME280;2377;51.734;8.950;2023-12-20T06:40:54;97459.75;;;5.26;100.00
27712;BME280;2377;51.734;8.950;2023-12-20T06:43:23;97459.25;;;5.44;100.00
27712;BME280;2377;51.734;8.950;2023-12-20T06:45:50;97456.91;;;5.43;100.00
27712;BME280;2377;51.734;8.950;2023-12-20T06:48:17;97447.53;;;5.37;100.00
27712;BME280;2377;51.734;8.950;2023-12-20T06:50:44;97448.69;;;5.41;100.00
27712;BME280;2377;51.734;8.950;2023-12-20T06:53:11;97455.31;;;5.35;100.00
27712;BME280;2377;51.734;8.950;2023-12-20T06:55:38;97454.75;;;5.40;100.00
27712;BME280;2377;51.734;8.950;2023-12-20T06:58:06;97454.72;;;5.33;100.00
27712;BME280;2377;51.734;8.950;2023-12-20T07:00:34;97465.56;;;5.20;100.00
27712;BME280;2377;51.734;8.950;2023-12-20T07:03:01;97456.84;;;5.29;100.00
27712;BME280;2377;51.734;8.950;2023-12-20T07:05:28;97454.50;;;5.28;100.00
27712;BME280;2377;51.734;8.950;2023-12-20T07:07:55;97465.06;;;5.32;100.00
27712;BME280;2377;51.734;8.950;2023-12-20T07:10:22;97476.00;;;5.39;100.00
27712;BME280;2377;51.734;8.950;2023-12-20T07:12:49;97461.53;;;5.33;100.00
27712;BME280;2377;51.734;8.950;2023-12-20T07:15:18;97464.50;;;5.43;100.00
27712;BME280;2377;51.734;8.950;2023-12-20T07:17:45;97469.91;;;5.33;100.00
27712;BME280;2377;51.734;8.950;2023-12-20T07:20:12;97456.03;;;5.22;100.00
27712;BME280;2377;51.734;8.950;2023-12-20T07:22:39;97452.69;;;5.15;100.00
27712;BME280;2377;51.734;8.950;2023-12-20T07:25:07;97458.41;;;5.30;100.00
27712;BME280;2377;51.734;8.950;2023-12-20T07:27:35;97450.41;;;5.27;100.00
27712;BME280;2377;51.734;8.950;2023-12-20T07:30:02;97474.72;;;5.21;100.00
27712;BME280;2377;51.734;8.950;2023-12-20T07:32:31;97470.09;;;5.25;100.00
27712;BME280;2377;51.734;8.950;2023-12-20T07:34:58;97473.78;;;5.29;100.00
27712;BME280;2377;51.734;8.950;2023-12-20T07:37:25;97483.38;;;5.34;100.00
27712;BME280;2377;51.734;8.950;2023-12-20T07:39:52;97473.41;;;5.25;100.00
27712;BME280;2377;51.734;8.950;2023-12-20T07:42:19;97471.25;;;5.22;100.00
27712;BME280;2377;51.734;8.950;2023-12-20T07:44:47;97467.94;;;5.28;100.00
27712;BME280;2377;51.734;8.950;2023-12-20T07:47:14;97462.69;;;5.30;100.00
27712;BME280;2377;51.734;8.950;2023-12-20T07:49:46;97473.22;;;5.34;100.00
27712;BME280;2377;51.734;8.950;2023-12-20T07:52:13;97469.88;;;5.26;100.00
27712;BME280;2377;51.734;8.950;2023-12-20T07:54:40;97475.09;;;5.18;100.00
27712;BME280;2377;51.734;8.950;2023-12-20T07:57:08;97467.28;;;5.13;100.00
27712;BME280;2377;51.734;8.950;2023-12-20T07:59:36;97459.72;;;5.20;100.00
27712;BME280;2377;51.734;8.950;2023-12-20T08:02:03;97461.09;;;5.22;100.00
27712;BME280;2377;51.734;8.950;2023-12-20T08:04:31;97461.88;;;5.23;100.00
27712;BME280;2377;51.734;8.950;2023-12-20T08:06:59;97457.00;;;5.21;100.00
27712;BME280;2377;51.734;8.950;2023-12-20T08:09:27;97465.38;;;5.22;100.00
27712;BME280;2377;51.734;8.950;2023-12-20T08:11:54;97460.50;;;5.20;100.00
27712;BME280;2377;51.734;8.950;2023-12-20T08:14:22;97480.22;;;5.25;100.00
27712;BME280;2377;51.734;8.950;2023-12-20T08:16:49;97470.41;;;5.15;100.00
27712;BME280;2377;51.734;8.950;2023-12-20T08:19:16;97467.28;;;5.13;100.00
27712;BME280;2377;51.734;8.950;2023-12-20T08:21:43;97465.38;;;5.22;100.00
27712;BME280;2377;51.734;8.950;2023-12-20T08:24:12;97463.81;;;5.21;100.00
27712;BME280;2377;51.734;8.950;2023-12-20T08:26:39;97469.22;;;5.11;100.00
27712;BME280;2377;51.734;8.950;2023-12-20T08:29:06;97460.84;;;5.17;100.00
27712;BME280;2377;51.734;8.950;2023-12-20T08:31:33;97465.19;;;5.23;100.00
27712;BME280;2377;51.734;8.950;2023-12-20T08:34:00;97466.47;;;5.06;100.00
27712;BME280;2377;51.734;8.950;2023-12-20T08:36:27;97469.22;;;5.11;100.00
27712;BME280;2377;51.734;8.950;2023-12-20T08:38:54;97464.97;;;5.18;100.00
27712;BME280;2377;51.734;8.950;2023-12-20T08:41:23;97453.50;;;5.22;100.00
27712;BME280;2377;51.734;8.950;2023-12-20T08:43:50;97459.56;;;5.28;100.00
27712;BME280;2377;51.734;8.950;2023-12-20T08:46:17;97449.81;;;5.25;100.00
27712;BME280;2377;51.734;8.950;2023-12-20T08:48:44;97447.31;;;5.32;100.00
27712;BME280;2377;51.734;8.950;2023-12-20T08:51:13;97456.66;;;5.31;100.00
27712;BME280;2377;51.734;8.950;2023-12-20T08:53:40;97443.22;;;5.30;100.00
27712;BME280;2377;51.734;8.950;2023-12-20T08:56:07;97438.53;;;5.27;100.00
27712;BME280;2377;51.734;8.950;2023-12-20T08:58:35;97431.47;;;5.23;100.00
27712;BME280;2377;51.734;8.950;2023-12-20T09:01:03;97427.97;;;5.24;100.00
27712;BME280;2377;51.734;8.950;2023-12-20T09:03:30;97418.81;;;5.23;100.00
27712;BME280;2377;51.734;8.950;2023-12-20T09:05:57;97428.78;;;5.24;100.00
27712;BME280;2377;51.734;8.950;2023-12-20T09:08:24;97430.72;;;5.22;100.00
27712;BME280;2377;51.734;8.950;2023-12-20T09:10:51;97424.53;;;5.32;100.00
27712;BME280;2377;51.734;8.950;2023-12-20T09:13:18;97425.59;;;5.16;100.00
27712;BME280;2377;51.734;8.950;2023-12-20T09:15:47;97418.03;;;5.22;100.00
27712;BME280;2377;51.734;8.950;2023-12-20T09:18:14;97418.03;;;5.22;100.00
27712;BME280;2377;51.734;8.950;2023-12-20T09:20:41;97427.63;;;5.34;100.00
27712;BME280;2377;51.734;8.950;2023-12-20T09:23:08;97411.81;;;5.25;100.00
27712;BME280;2377;51.734;8.950;2023-12-20T09:25:35;97412.16;;;5.22;100.00
27712;BME280;2377;51.734;8.950;2023-12-20T09:28:03;97402.66;;;5.30;100.00
27712;BME280;2377;51.734;8.950;2023-12-20T09:30:30;97406.31;;;5.21;100.00
27712;BME280;2377;51.734;8.950;2023-12-20T09:32:58;97404.56;;;5.22;100.00
27712;BME280;2377;51.734;8.950;2023-12-20T09:35:25;97409.25;;;5.18;100.00
27712;BME280;2377;51.734;8.950;2023-12-20T09:37:52;97402.84;;;5.22;100.00
27712;BME280;2377;51.734;8.950;2023-12-20T09:40:19;97402.25;;;5.20;100.00
27712;BME280;2377;51.734;8.950;2023-12-20T09:42:53;97388.34;;;5.09;100.00
27712;BME280;2377;51.734;8.950;2023-12-20T09:45:22;97402.47;;;5.25;100.00
27712;BME280;2377;51.734;8.950;2023-12-20T09:47:50;97388.59;;;5.21;100.00
27712;BME280;2377;51.734;8.950;2023-12-20T09:50:22;97396.19;;;5.21;100.00
27712;BME280;2377;51.734;8.950;2023-12-20T09:52:51;97393.44;;;5.16;100.00
27712;BME280;2377;51.734;8.950;2023-12-20T09:55:19;97380.84;;;5.29;100.00
27712;BME280;2377;51.734;8.950;2023-12-20T09:57:47;97381.97;;;5.20;100.00
27712;BME280;2377;51.734;8.950;2023-12-20T10:00:16;97377.91;;;5.26;100.00
27712;BME280;2377;51.734;8.950;2023-12-20T10:02:50;97374.97;;;5.22;100.00
27712;BME280;2377;51.734;8.950;2023-12-20T10:05:28;97369.13;;;5.28;100.00
27712;BME280;2377;51.734;8.950;2023-12-20T10:07:55;97374.59;;;5.25;100.00
27712;BME280;2377;51.734;8.950;2023-12-20T10:10:22;97369.13;;;5.28;100.00
27712;BME280;2377;51.734;8.950;2023-12-20T10:13:03;97367.22;;;5.37;100.00
27712;BME280;2377;51.734;8.950;2023-12-20T10:15:30;97373.66;;;5.40;100.00
27712;BME280;2377;51.734;8.950;2023-12-20T10:17:57;97366.25;;;5.38;100.00
27712;BME280;2377;51.734;8.950;2023-12-20T10:20:26;97368.59;;;5.40;100.00
27712;BME280;2377;51.734;8.950;2023-12-20T10:22:55;97360.59;;;5.43;100.00
27712;BME280;2377;51.734;8.950;2023-12-20T10:25:22;97359.22;;;5.34;100.00
27712;BME280;2377;51.734;8.950;2023-12-20T10:28:08;97364.47;;;5.32;100.00
27712;BME280;2377;51.734;8.950;2023-12-20T10:30:36;97364.88;;;5.36;100.00
27712;BME280;2377;51.734;8.950;2023-12-20T10:33:05;97371.88;;;5.34;100.00
27712;BME280;2377;51.734;8.950;2023-12-20T10:35:34;97363.88;;;5.30;100.00
27712;BME280;2377;51.734;8.950;2023-12-20T10:38:04;97356.69;;;5.27;100.00
27712;BME280;2377;51.734;8.950;2023-12-20T10:40:34;97356.69;;;5.34;100.00
27712;BME280;2377;51.734;8.950;2023-12-20T10:43:03;97365.84;;;5.35;100.00
27712;BME280;2377;51.734;8.950;2023-12-20T10:45:31;97337.38;;;5.33;100.00
27712;BME280;2377;51.734;8.950;2023-12-20T10:47:58;97353.19;;;5.35;100.00
27712;BME280;2377;51.734;8.950;2023-12-20T10:50:27;97346.16;;;5.30;100.00
27712;BME280;2377;51.734;8.950;2023-12-20T10:52:58;97342.47;;;5.33;100.00
27712;BME280;2377;51.734;8.950;2023-12-20T10:55:26;97332.13;;;5.41;100.00
27712;BME280;2377;51.734;8.950;2023-12-20T10:58:00;97332.91;;;5.35;100.00
27712;BME280;2377;51.734;8.950;2023-12-20T11:00:29;97342.09;;;5.42;100.00
27712;BME280;2377;51.734;8.950;2023-12-20T11:03:01;97336.84;;;5.44;100.00
27712;BME280;2377;51.734;8.950;2023-12-20T11:05:39;97332.13;;;5.41;100.00
27712;BME280;2377;51.734;8.950;2023-12-20T11:08:18;97329.59;;;5.41;100.00
27712;BME280;2377;51.734;8.950;2023-12-20T11:10:56;97329.59;;;5.41;100.00
27712;BME280;2377;51.734;8.950;2023-12-20T11:13:31;97316.72;;;5.22;100.00
27712;BME280;2377;51.734;8.950;2023-12-20T11:16:00;97336.72;;;5.17;100.00
27712;BME280;2377;51.734;8.950;2023-12-20T11:18:31;97324.53;;;5.41;100.00
27712;BME280;2377;51.734;8.950;2023-12-20T11:21:01;97334.50;;;5.49;100.00
27712;BME280;2377;51.734;8.950;2023-12-20T11:23:32;97334.09;;;5.39;100.00
27712;BME280;2377;51.734;8.950;2023-12-20T11:26:01;97320.06;;;5.43;100.00
27712;BME280;2377;51.734;8.950;2023-12-20T11:28:29;97316.78;;;5.49;100.00
27712;BME280;2377;51.734;8.950;2023-12-20T11:30:58;97331.94;;;5.42;100.00
27712;BME280;2377;51.734;8.950;2023-12-20T11:33:29;97338.81;;;5.55;100.00
27712;BME280;2377;51.734;8.950;2023-12-20T11:35:58;97327.13;;;5.54;100.00
27712;BME280;2377;51.734;8.950;2023-12-20T11:38:26;97338.38;;;5.45;100.00
27712;BME280;2377;51.734;8.950;2023-12-20T11:40:55;97332.56;;;5.44;100.00
27712;BME280;2377;51.734;8.950;2023-12-20T11:43:35;97325.94;;;5.43;100.00
27712;BME280;2377;51.734;8.950;2023-12-20T11:46:04;97313.25;;;5.43;100.00
27712;BME280;2377;51.734;8.950;2023-12-20T11:48:33;97317.75;;;5.48;100.00
27712;BME280;2377;51.734;8.950;2023-12-20T11:51:01;97306.06;;;5.54;100.00
27712;BME280;2377;51.734;8.950;2023-12-20T11:53:29;97319.13;;;5.50;100.00
27712;BME280;2377;51.734;8.950;2023-12-20T11:55:59;97299.00;;;5.36;100.00
27712;BME280;2377;51.734;8.950;2023-12-20T11:58:28;97304.06;;;5.42;100.00
27712;BME280;2377;51.734;8.950;2023-12-20T12:00:56;97292.78;;;5.51;100.00
27712;BME280;2377;51.734;8.950;2023-12-20T12:03:23;97295.09;;;5.40;100.00
27712;BME280;2377;51.734;8.950;2023-12-20T12:05:51;97295.31;;;5.51;100.00
27712;BME280;2377;51.734;8.950;2023-12-20T12:08:18;97306.22;;;5.39;100.00
27712;BME280;2377;51.734;8.950;2023-12-20T12:10:45;97293.75;;;5.44;100.00
27712;BME280;2377;51.734;8.950;2023-12-20T12:13:14;97293.56;;;5.52;100.00
27712;BME280;2377;51.734;8.950;2023-12-20T12:15:42;97299.22;;;5.47;100.00
27712;BME280;2377;51.734;8.950;2023-12-20T12:18:10;97292.81;;;5.58;100.00
27712;BME280;2377;51.734;8.950;2023-12-20T12:20:38;97286.75;;;5.59;100.00
27712;BME280;2377;51.734;8.950;2023-12-20T12:23:06;97290.66;;;5.68;100.00
27712;BME280;2377;51.734;8.950;2023-12-20T12:25:35;97290.06;;;5.66;100.00
27712;BME280;2377;51.734;8.950;2023-12-20T12:28:03;97287.19;;;5.69;100.00
27712;BME280;2377;51.734;8.950;2023-12-20T12:30:31;97288.53;;;5.72;100.00
27712;BME280;2377;51.734;8.950;2023-12-20T12:32:59;97281.88;;;5.64;100.00
27712;BME280;2377;51.734;8.950;2023-12-20T12:35:26;97278.78;;;5.62;100.00
27712;BME280;2377;51.734;8.950;2023-12-20T12:37:54;97278.59;;;5.70;100.00
27712;BME280;2377;51.734;8.950;2023-12-20T12:40:21;97275.28;;;5.83;100.00
27712;BME280;2377;51.734;8.950;2023-12-20T12:42:48;97274.88;;;5.80;100.00
27712;BME280;2377;51.734;8.950;2023-12-20T12:45:15;97271.78;;;5.91;100.00
27712;BME280;2377;51.734;8.950;2023-12-20T12:47:45;97267.06;;;5.68;100.00
27712;BME280;2377;51.734;8.950;2023-12-20T12:50:12;97261.25;;;5.74;100.00
27712;BME280;2377;51.734;8.950;2023-12-20T12:52:39;97274.47;;;5.83;100.00
27712;BME280;2377;51.734;8.950;2023-12-20T12:55:07;97265.72;;;5.92;100.00
27712;BME280;2377;51.734;8.950;2023-12-20T12:57:34;97262.84;;;5.95;100.00
27712;BME280;2377;51.734;8.950;2023-12-20T13:00:02;97270.63;;;6.00;100.00
27712;BME280;2377;51.734;8.950;2023-12-20T13:02:30;97260.63;;;5.92;100.00
27712;BME280;2377;51.734;8.950;2023-12-20T13:04:59;97266.50;;;5.99;100.00
27712;BME280;2377;51.734;8.950;2023-12-20T13:07:28;97254.81;;;5.98;100.00
27712;BME280;2377;51.734;8.950;2023-12-20T13:09:55;97255.38;;;5.73;100.00
27712;BME280;2377;51.734;8.950;2023-12-20T13:12:22;97256.94;;;5.88;100.00
27712;BME280;2377;51.734;8.950;2023-12-20T13:14:49;97257.50;;;5.90;100.00